Time,TemperatureF,DewpointF,PressureIn,WindDirection,WindDirectionDegrees,WindSpeedMPH,WindSpeedGustMPH,Humidity,HourlyPrecipIn,Conditions,Clouds,dailyrainin,SoftwareType,DateUTC
2013-03-18 00:10:00,39.0,36.0,30.14,SSE,166,0.0,3.0,88,0.00,,,0.00,weatherlink.com 1.10,2013-03-18 07:10:00,
2013-03-18 00:25:00,38.8,36.0,30.15,SW,219,0.0,4.0,89,0.00,,,0.00,weatherlink.com 1.10,2013-03-18 07:25:00,
2013-03-18 00:40:00,38.4,36.0,30.14,SSW,198,7.0,7.0,90,0.00,,,0.00,weatherlink.com 1.10,2013-03-18 07:40:00,
2013-03-18 00:55:00,38.7,36.0,30.14,SE,146,6.0,8.0,90,0.00,,,0.00,weatherlink.com 1.10,2013-03-18 07:55:00,
2013-03-18 01:10:00,38.7,36.0,30.13,SSW,198,3.0,8.0,89,0.00,,,0.00,weatherlink.com 1.10,2013-03-18 08:10:00,
2013-03-18 01:25:00,38.3,36.0,30.13,South,185,4.0,7.0,90,0.00,,,0.00,weatherlink.com 1.10,2013-03-18 08:25:00,
2013-03-18 01:40:00,38.7,36.0,30.12,SE,135,5.0,9.0,90,0.00,,,0.00,weatherlink.com 1.10,2013-03-18 08:40:00,
2013-03-18 01:55:00,38.7,36.0,30.11,South,177,8.0,11.0,89,0.00,,,0.00,weatherlink.com 1.10,2013-03-18 08:55:00,
2013-03-18 02:10:00,39.0,36.0,30.11,South,173,9.0,11.0,90,0.00,,,0.00,weatherlink.com 1.10,2013-03-18 09:10:00,
2013-03-18 02:25:00,39.1,37.0,30.11,South,177,8.0,15.0,90,0.00,,,0.00,weatherlink.com 1.10,2013-03-18 09:25:00,
2013-03-18 02:41:00,39.2,36.0,30.10,South,181,11.0,15.0,89,0.00,,,0.00,weatherlink.com 1.10,2013-03-18 09:41:00,
2013-03-18 02:56:00,39.4,37.0,30.10,South,176,11.0,15.0,89,0.00,,,0.00,weatherlink.com 1.10,2013-03-18 09:56:00,
2013-03-18 03:12:00,39.5,37.0,30.09,South,177,7.0,12.0,89,0.00,,,0.00,weatherlink.com 1.10,2013-03-18 10:12:00,
2013-03-18 03:26:00,39.3,36.0,30.09,SSE,166,1.0,16.0,88,0.00,,,0.00,weatherlink.com 1.10,2013-03-18 10:26:00,
2013-03-18 03:41:00,39.3,36.0,30.08,SE,143,0.0,12.0,88,0.00,,,0.00,weatherlink.com 1.10,2013-03-18 10:41:00,
2013-03-18 03:56:00,39.2,36.0,30.08,South,170,4.0,7.0,88,0.00,,,0.00,weatherlink.com 1.10,2013-03-18 10:56:00,
2013-03-18 04:11:00,38.6,35.0,30.08,WSW,252,1.0,3.0,88,0.00,,,0.00,weatherlink.com 1.10,2013-03-18 11:11:00,
2013-03-18 04:26:00,37.8,35.0,30.08,SW,219,2.0,7.0,89,0.00,,,0.00,weatherlink.com 1.10,2013-03-18 11:26:00,
2013-03-18 05:11:00,40.2,37.0,30.08,South,183,6.0,16.0,87,0.00,,,0.00,weatherlink.com 1.10,2013-03-18 12:11:00,
2013-03-18 05:26:00,40.3,37.0,30.08,SW,232,1.0,14.0,88,0.00,,,0.00,weatherlink.com 1.10,2013-03-18 12:26:00,
2013-03-18 05:41:00,40.6,38.0,30.08,SSW,201,2.0,18.0,89,0.00,,,0.00,weatherlink.com 1.10,2013-03-18 12:41:00,
2013-03-18 06:11:00,40.8,38.0,30.10,ESE,105,5.0,7.0,88,0.00,,,0.00,weatherlink.com 1.10,2013-03-18 13:11:00,
2013-03-18 06:26:00,40.6,38.0,30.10,ESE,103,1.0,7.0,89,0.00,,,0.00,weatherlink.com 1.10,2013-03-18 13:26:00,
2013-03-18 07:11:00,39.9,37.0,30.11,SSW,206,0.0,3.0,90,0.00,,,0.00,weatherlink.com 1.10,2013-03-18 14:11:00,
2013-03-18 07:26:00,39.9,37.0,30.11,West,270,0.0,1.0,90,0.00,,,0.00,weatherlink.com 1.10,2013-03-18 14:26:00,
2013-03-18 07:41:00,39.8,37.0,30.11,West,269,0.0,1.0,91,0.00,,,0.00,weatherlink.com 1.10,2013-03-18 14:41:00,
2013-03-18 07:56:00,40.4,38.0,30.11,West,276,1.0,1.0,90,0.00,,,0.00,weatherlink.com 1.10,2013-03-18 14:56:00,
2013-03-18 08:11:00,41.0,38.0,30.12,NNE,13,2.0,2.0,90,0.00,,,0.00,weatherlink.com 1.10,2013-03-18 15:11:00,
2013-03-18 08:26:00,41.5,39.0,30.12,NNW,342,3.0,3.0,89,0.00,,,0.00,weatherlink.com 1.10,2013-03-18 15:26:00,
2013-03-18 08:41:00,41.9,39.0,30.12,NNE,16,3.0,3.0,88,0.00,,,0.00,weatherlink.com 1.10,2013-03-18 15:41:00,
2013-03-18 08:56:00,42.4,39.0,30.13,NE,46,0.0,3.0,87,0.00,,,0.00,weatherlink.com 1.10,2013-03-18 15:56:00,
2013-03-18 09:26:00,43.6,39.0,30.14,East,89,0.0,1.0,85,0.00,,,0.00,weatherlink.com 1.10,2013-03-18 16:26:00,
2013-03-18 09:56:00,46.0,40.0,30.13,SSE,153,3.0,6.0,79,0.00,,,0.00,weatherlink.com 1.10,2013-03-18 16:56:00,
2013-03-18 10:11:00,45.8,39.0,30.14,South,169,4.0,7.0,76,0.00,,,0.00,weatherlink.com 1.10,2013-03-18 17:11:00,
2013-03-18 10:26:00,46.0,39.0,30.14,East,96,0.0,6.0,75,0.00,,,0.00,weatherlink.com 1.10,2013-03-18 17:26:00,
2013-03-18 10:41:00,45.4,39.0,30.15,NE,54,2.0,3.0,78,0.00,,,0.00,weatherlink.com 1.10,2013-03-18 17:41:00,
2013-03-18 10:57:00,45.1,39.0,30.15,NE,47,1.0,2.0,78,0.00,,,0.00,weatherlink.com 1.10,2013-03-18 17:57:00,
2013-03-18 11:11:00,46.3,39.0,30.15,SSE,155,5.0,6.0,75,0.00,,,0.00,weatherlink.com 1.10,2013-03-18 18:11:00,
2013-03-18 11:27:00,46.5,39.0,30.16,SSE,160,6.0,8.0,75,0.00,,,0.00,weatherlink.com 1.10,2013-03-18 18:27:00,
2013-03-18 11:42:00,46.4,39.0,30.16,SE,132,4.0,9.0,74,0.00,,,0.00,weatherlink.com 1.10,2013-03-18 18:42:00,
2013-03-18 11:57:00,46.7,39.0,30.16,SSE,148,4.0,7.0,75,0.00,,,0.00,weatherlink.com 1.10,2013-03-18 18:57:00,
2013-03-18 12:27:00,47.0,39.0,30.16,SSE,156,4.0,9.0,75,0.00,,,0.00,weatherlink.com 1.10,2013-03-18 19:27:00,
2013-03-18 12:42:00,47.4,38.0,30.17,South,170,2.0,8.0,71,0.00,,,0.00,weatherlink.com 1.10,2013-03-18 19:42:00,
2013-03-18 12:57:00,47.8,38.0,30.17,SE,141,7.0,10.0,69,0.00,,,0.00,weatherlink.com 1.10,2013-03-18 19:57:00,
2013-03-18 13:12:00,48.3,38.0,30.17,SSE,156,4.0,8.0,67,0.00,,,0.00,weatherlink.com 1.10,2013-03-18 20:12:00,
2013-03-18 13:27:00,48.5,38.0,30.17,SSE,155,2.0,11.0,68,0.00,,,0.00,weatherlink.com 1.10,2013-03-18 20:27:00,
2013-03-18 13:42:00,48.1,39.0,30.17,SSE,163,7.0,11.0,70,0.00,,,0.00,weatherlink.com 1.10,2013-03-18 20:42:00,
2013-03-18 13:57:00,48.4,39.0,30.17,SSE,148,5.0,8.0,69,0.00,,,0.00,weatherlink.com 1.10,2013-03-18 20:57:00,
2013-03-18 14:12:00,48.3,39.0,30.17,SSE,166,6.0,8.0,70,0.00,,,0.00,weatherlink.com 1.10,2013-03-18 21:12:00,
2013-03-18 14:27:00,48.6,39.0,30.17,ESE,117,1.0,6.0,69,0.00,,,0.00,weatherlink.com 1.10,2013-03-18 21:27:00,
2013-03-18 14:42:00,48.9,39.0,30.17,SE,146,5.0,9.0,69,0.00,,,0.00,weatherlink.com 1.10,2013-03-18 21:42:00,
2013-03-18 14:57:00,49.2,38.0,30.17,SSE,152,1.0,3.0,66,0.00,,,0.00,weatherlink.com 1.10,2013-03-18 21:57:00,
2013-03-18 15:12:00,49.8,38.0,30.17,NE,56,4.0,5.0,64,0.00,,,0.00,weatherlink.com 1.10,2013-03-18 22:12:00,
2013-03-18 15:27:00,49.9,38.0,30.17,NNE,32,2.0,5.0,63,0.00,,,0.00,weatherlink.com 1.10,2013-03-18 22:27:00,
2013-03-18 15:42:00,48.8,38.0,30.17,NE,34,7.0,12.0,67,0.00,,,0.00,weatherlink.com 1.10,2013-03-18 22:42:00,
2013-03-18 15:57:00,48.7,38.0,30.17,ENE,58,5.0,8.0,67,0.00,,,0.00,weatherlink.com 1.10,2013-03-18 22:57:00,
2013-03-18 16:12:00,48.9,37.0,30.18,NNE,17,11.0,11.0,63,0.00,,,0.00,weatherlink.com 1.10,2013-03-18 23:12:00,
2013-03-18 16:27:00,49.2,37.0,30.18,North,9,8.0,8.0,64,0.00,,,0.00,weatherlink.com 1.10,2013-03-18 23:27:00,
2013-03-18 16:42:00,49.2,37.0,30.18,NNE,23,6.0,9.0,62,0.00,,,0.00,weatherlink.com 1.10,2013-03-18 23:42:00,
2013-03-18 16:57:00,49.2,38.0,30.18,NE,41,7.0,12.0,65,0.00,,,0.00,weatherlink.com 1.10,2013-03-18 23:57:00,
2013-03-18 17:12:00,49.3,38.0,30.19,NNE,15,7.0,11.0,66,0.00,,,0.00,weatherlink.com 1.10,2013-03-19 00:12:00,
2013-03-18 17:27:00,48.8,37.0,30.18,NNW,328,5.0,10.0,65,0.00,,,0.00,weatherlink.com 1.10,2013-03-19 00:27:00,
2013-03-18 17:42:00,48.5,36.0,30.18,NNE,15,6.0,11.0,63,0.00,,,0.00,weatherlink.com 1.10,2013-03-19 00:42:00,
2013-03-18 17:57:00,48.4,38.0,30.19,NNE,17,8.0,10.0,67,0.00,,,0.00,weatherlink.com 1.10,2013-03-19 00:57:00,
2013-03-18 18:12:00,48.2,37.0,30.19,North,354,4.0,8.0,65,0.00,,,0.00,weatherlink.com 1.10,2013-03-19 01:12:00,
2013-03-18 18:27:00,48.1,36.0,30.19,NE,35,4.0,10.0,64,0.00,,,0.00,weatherlink.com 1.10,2013-03-19 01:27:00,
2013-03-18 18:42:00,47.8,37.0,30.19,NNE,20,4.0,9.0,67,0.00,,,0.00,weatherlink.com 1.10,2013-03-19 01:42:00,
2013-03-18 18:57:00,47.4,37.0,30.20,NE,41,6.0,7.0,67,0.00,,,0.00,weatherlink.com 1.10,2013-03-19 01:57:00,
2013-03-18 19:12:00,46.7,37.0,30.20,NNE,26,5.0,8.0,70,0.00,,,0.00,weatherlink.com 1.10,2013-03-19 02:12:00,
2013-03-18 19:27:00,46.1,37.0,30.20,NNE,27,7.0,8.0,70,0.00,,,0.00,weatherlink.com 1.10,2013-03-19 02:27:00,
2013-03-18 19:42:00,45.7,37.0,30.20,NE,41,3.0,6.0,72,0.00,,,0.00,weatherlink.com 1.10,2013-03-19 02:42:00,
2013-03-18 19:57:00,45.3,37.0,30.21,NE,54,2.0,3.0,72,0.00,,,0.00,weatherlink.com 1.10,2013-03-19 02:57:00,
2013-03-18 20:12:00,44.7,36.0,30.21,NNE,25,3.0,5.0,72,0.00,,,0.00,weatherlink.com 1.10,2013-03-19 03:12:00,
2013-03-18 20:27:00,43.9,36.0,30.21,West,281,1.0,2.0,75,0.00,,,0.00,weatherlink.com 1.10,2013-03-19 03:27:00,
2013-03-18 20:42:00,43.6,36.0,30.21,NNW,332,1.0,5.0,75,0.00,,,0.00,weatherlink.com 1.10,2013-03-19 03:42:00,
2013-03-18 20:57:00,42.8,37.0,30.21,WNW,295,0.0,1.0,79,0.00,,,0.00,weatherlink.com 1.10,2013-03-19 03:57:00,
2013-03-18 21:12:00,43.0,37.0,30.22,NE,46,3.0,6.0,78,0.00,,,0.00,weatherlink.com 1.10,2013-03-19 04:12:00,
2013-03-18 21:27:00,43.0,37.0,30.22,NNE,30,2.0,4.0,79,0.00,,,0.00,weatherlink.com 1.10,2013-03-19 04:27:00,
2013-03-18 21:42:00,42.9,37.0,30.22,WNW,301,2.0,5.0,79,0.00,,,0.00,weatherlink.com 1.10,2013-03-19 04:42:00,
2013-03-18 21:57:00,42.3,37.0,30.22,WNW,295,2.0,2.0,80,0.00,,,0.00,weatherlink.com 1.10,2013-03-19 04:57:00,
2013-03-18 22:12:00,41.9,37.0,30.22,West,261,1.0,4.0,81,0.00,,,0.00,weatherlink.com 1.10,2013-03-19 05:12:00,
2013-03-18 22:42:00,40.3,36.0,30.22,West,277,2.0,2.0,85,0.00,,,0.00,weatherlink.com 1.10,2013-03-19 05:42:00,
2013-03-18 22:57:00,39.5,36.0,30.22,West,273,3.0,3.0,86,0.00,,,0.00,weatherlink.com 1.10,2013-03-19 05:57:00,
2013-03-18 23:12:00,38.4,35.0,30.22,West,262,2.0,2.0,88,0.00,,,0.00,weatherlink.com 1.10,2013-03-19 06:12:00,
2013-03-18 23:27:00,38.1,35.0,30.22,West,281,2.0,3.0,89,0.00,,,0.00,weatherlink.com 1.10,2013-03-19 06:27:00,
2013-03-18 23:42:00,38.0,35.0,30.22,West,262,1.0,2.0,89,0.00,,,0.00,weatherlink.com 1.10,2013-03-19 06:42:00,
2013-03-18 23:58:00,37.5,35.0,30.21,West,269,2.0,2.0,90,0.00,,,0.00,weatherlink.com 1.10,2013-03-19 06:58:00,